Redwood City, CA

9:53 PM PDT on September 21, 2014 (GMT -0700)
Redwood Shores - Baltic Circle | Change Station
CLOSE
Current Station
Personal Weather Station
Location: Redwood City, CA
Elevation: -10 ft
Nearby Weather Stations

Elev -10 ft 37.54 °N, 122.24 °W | Updated 1 minute ago

Clear
Clear
64.9 °F
Feels Like 64.9 °F
N
1.0
Wind Variable Wind from NW
Gusts 5.0 mph

Today
High -- | Low -- °F
--% Chance of Precip.
Yesterday
High -- | Low -- °F
Precip. -- in
6:56 AM 7:07 PM
Waning Crescent, 4% visible
Pressure 30.03 in
Visibility 10.0 miles
Clouds Clear
Dew Point 60 °F
Humidity 84%
Rainfall 0.00 in
Snow Depth 0 in , 0 in , 0 in
UV 0 out of 12
Pollen 3.80 out of 12
PM2.5 Good
Flu Activity Not available.
METAR KSQL 220430Z AUTO 30006KT 10SM CLR 18/15 A3003 RMK AO2

More Conditions Fewer Conditions

Pressure 30.03 in
Visibility 10.0 miles
Clouds Clear
Dew Point 60 °F
Humidity 84%
Rainfall 0.00 in
Snow Depth 0 in , 0 in , 0 in
UV 0 out of 12
Pollen 3.80 out of 12
PM2.5 Good
Flu Activity Not available.
METAR KSQL 220430Z AUTO 30006KT 10SM CLR 18/15 A3003 RMK AO2

More Conditions Fewer Conditions

10-Day Weather Forecast

Almanac

Astronomy

Sep. 21, 2014 Rise Set
Actual Time 6:56 AM PDT 7:07 PM PDT
Civil Twilight 6:29 AM PDT 7:33 PM PDT
Nautical Twilight 5:59 AM PDT 8:03 PM PDT
Astronomical Twilight 5:28 AM PDT 8:34 PM PDT
Moon 4:36 AM PDT (9/21) 5:44 PM PDT (9/21)
Length of Visible Light 13h 03m
Length of Day
12h 11m
Tomorrow will be 2m 24s shorter.
Waning Crescent, 4% of the Moon is Illuminated
Sep 22
Waning Crescent
Sep 24
New
Oct 1
First Quarter
Oct 8
Full
Oct 15
Last Quarter

Yesterday's Extremes

State Highs State Lows

Community

WunderPhotos

Upload Photos

1,755,391 photos uploaded!

Nearby

Air Quality

  Air Quality AQ Index Pollutant
Yesterday Good
PM2.5
Yesterday Good
OZONE
Current Good
PM2.5
Sunday Moderate
PM2.5
Monday Good
PM2.5
Tuesday Good
PM2.5
Wednesday Good
OZONE
Thursday Good
OZONE
Friday Good
OZONE

Snow Depth

Station Depth Elevation
Forestdale Creek 0 in 8029 ft
Monitor Pass 0 in 8350 ft
Tahoe City Cross 0 in 6750 ft
Spratt Creek 1 in 6200 ft
Rubicon #2 0 in 7500 ft

Earthquake Activity

City Distance Mag. Time & Date
Sonoma, California 55 miles 2.7 1:17 PM PDT
2014-09-21
Cloverdale, California 96 miles 2.5 9:15 PM PDT
2014-09-20
Livermore, California 30 miles 2.6 3:37 AM PDT
2014-09-19
, 88 miles 2.5 11:00 PM PDT
2014-09-17
Minimum magnitude displayed is 2.5.

Coastal Water Temperatures

Place Temperature
No Stations Reporting

Nearby Weather Stations